createdAt,value
2018-03-25T00:00:24.125Z,88.49
2018-03-25T00:01:24.062Z,88.30
2018-03-25T00:03:17.503Z,88.96
2018-03-25T00:04:17.973Z,88.30
2018-03-25T00:06:10.326Z,89.06
2018-03-25T00:07:10.318Z,88.87
2018-03-25T00:09:10.741Z,88.78
2018-03-25T00:10:10.650Z,89.15
2018-03-25T00:12:04.024Z,89.15
2018-03-25T00:13:03.998Z,89.63
2018-03-25T00:14:58.911Z,89.82
2018-03-25T00:15:58.748Z,89.63
2018-03-25T00:17:51.563Z,89.34
2018-03-25T00:18:51.823Z,89.72
2018-03-25T00:20:45.340Z,89.72
2018-03-25T00:21:44.594Z,89.34
2018-03-25T00:23:38.940Z,89.72
2018-03-25T00:24:38.506Z,89.53
2018-03-25T00:26:32.656Z,89.25
2018-03-25T00:27:32.027Z,89.72
2018-03-25T00:29:25.661Z,89.91
2018-03-25T00:30:25.311Z,89.53
2018-03-25T00:32:19.016Z,89.72
2018-03-25T00:33:18.571Z,89.53
2018-03-25T00:35:12.343Z,89.91
2018-03-25T00:36:11.959Z,90.01
2018-03-25T00:38:05.704Z,90.20
2018-03-25T00:39:05.338Z,90.77
2018-03-25T00:40:59.588Z,90.86
2018-03-25T00:41:58.660Z,90.86
2018-03-25T00:43:52.061Z,91.52
2018-03-25T00:44:51.967Z,91.24
2018-03-25T00:46:45.947Z,91.62
2018-03-25T00:47:45.912Z,91.43
2018-03-25T00:49:38.970Z,91.00
2018-03-25T00:50:38.658Z,91.90
2018-03-25T00:52:32.061Z,91.67
2018-03-25T00:53:32.024Z,91.81
2018-03-25T00:55:25.466Z,92.38
2018-03-25T00:56:25.377Z,91.52
2018-03-25T00:58:19.094Z,91.67
2018-03-25T00:59:19.148Z,91.62
2018-03-25T01:01:12.479Z,92.38
2018-03-25T01:02:12.091Z,91.95
2018-03-25T01:04:05.581Z,92.14
2018-03-25T01:05:05.436Z,91.95
2018-03-25T01:06:59.181Z,92.05
2018-03-25T01:07:59.357Z,91.86
2018-03-25T01:09:52.257Z,91.67
2018-03-25T01:10:52.148Z,92.43
2018-03-25T01:12:45.827Z,91.95
2018-03-25T01:13:45.528Z,92.24
2018-03-25T01:15:39.265Z,92.33
2018-03-25T01:16:38.840Z,92.52
2018-03-25T01:18:32.875Z,92.71
2018-03-25T01:19:32.198Z,92.61
2018-03-25T01:21:25.620Z,92.61
2018-03-25T01:22:25.547Z,93.46
2018-03-25T01:24:19.446Z,92.90
2018-03-25T01:25:19.837Z,93.08
2018-03-25T01:27:13.369Z,93.18
2018-03-25T01:28:12.202Z,93.18
2018-03-25T01:30:05.988Z,93.75
2018-03-25T01:31:06.159Z,93.56
2018-03-25T01:33:00.075Z,93.18
2018-03-25T01:33:58.512Z,92.52
2018-03-25T01:35:52.792Z,92.80
2018-03-25T01:36:52.677Z,93.08
2018-03-25T01:38:46.100Z,93.18
2018-03-25T01:39:46.027Z,93.18
2018-03-25T01:41:39.411Z,93.18
2018-03-25T01:42:39.396Z,93.18
2018-03-25T01:44:32.606Z,93.18
2018-03-25T01:45:32.225Z,92.33
2018-03-25T01:47:25.623Z,92.61
2018-03-25T01:48:25.570Z,92.43
2018-03-25T01:50:18.978Z,92.80
2018-03-25T01:51:18.922Z,92.52
2018-03-25T01:53:12.517Z,92.43
2018-03-25T01:54:12.265Z,92.52
2018-03-25T01:56:05.660Z,93.18
2018-03-25T01:57:05.619Z,92.52
2018-03-25T01:58:59.002Z,92.43
2018-03-25T01:59:58.974Z,92.80
2018-03-25T02:01:52.436Z,92.05
2018-03-25T02:02:52.871Z,91.76
2018-03-25T02:04:45.457Z,92.99
2018-03-25T02:05:45.197Z,92.71
2018-03-25T02:07:38.522Z,92.61
2018-03-25T02:08:38.489Z,92.52
2018-03-25T02:10:31.923Z,92.43
2018-03-25T02:11:32.439Z,93.18
2018-03-25T02:13:25.247Z,92.80
2018-03-25T02:14:25.215Z,93.27
2018-03-25T02:16:18.976Z,93.37
2018-03-25T02:17:18.907Z,93.18
2018-03-25T02:19:12.313Z,93.65
2018-03-25T02:20:12.265Z,93.08
2018-03-25T02:22:06.462Z,93.46
2018-03-25T02:23:05.663Z,93.56
2018-03-25T02:24:59.063Z,93.46
2018-03-25T02:25:59.010Z,93.65
2018-03-25T02:27:52.353Z,93.94
2018-03-25T02:28:52.325Z,93.65
2018-03-25T02:30:45.838Z,93.42
2018-03-25T02:31:45.693Z,93.46
2018-03-25T02:33:39.120Z,93.80
2018-03-25T02:34:39.015Z,93.94
2018-03-25T02:36:32.707Z,93.56
2018-03-25T02:37:32.435Z,93.65
2018-03-25T02:39:25.727Z,93.61
2018-03-25T02:40:25.250Z,93.51
2018-03-25T02:42:18.660Z,93.56
2018-03-25T02:43:18.614Z,93.51
2018-03-25T02:45:12.020Z,93.70
2018-03-25T02:46:11.969Z,93.80
2018-03-25T02:48:05.664Z,93.70
2018-03-25T02:49:05.295Z,93.70
2018-03-25T02:51:00.712Z,93.89
2018-03-25T02:51:59.663Z,94.37
2018-03-25T02:53:55.598Z,94.37
2018-03-25T02:54:55.588Z,94.46
2018-03-25T02:56:48.966Z,94.27
2018-03-25T02:57:48.921Z,93.89
2018-03-25T02:59:42.639Z,94.37
2018-03-25T03:00:42.303Z,93.99
2018-03-25T03:02:35.756Z,93.89
2018-03-25T03:03:35.606Z,94.18
2018-03-25T03:05:29.193Z,94.93
2018-03-25T03:06:29.557Z,94.74
2018-03-25T03:08:22.196Z,94.74
2018-03-25T03:09:22.158Z,94.65
2018-03-25T03:11:30.176Z,95.12
2018-03-25T03:12:30.145Z,94.93
2018-03-25T03:14:23.750Z,94.74
2018-03-25T03:15:26.061Z,95.31
2018-03-25T03:17:16.811Z,95.78
2018-03-25T03:18:16.693Z,95.59
2018-03-25T03:20:10.091Z,95.40
2018-03-25T03:21:10.015Z,95.97
2018-03-25T03:23:03.546Z,95.59
2018-03-25T03:24:03.404Z,95.78
2018-03-25T03:25:56.797Z,95.88
2018-03-25T03:26:56.744Z,96.16
2018-03-25T03:28:50.128Z,96.16
2018-03-25T03:29:50.678Z,95.97
2018-03-25T03:31:43.555Z,96.07
2018-03-25T03:32:43.423Z,96.45
2018-03-25T03:34:36.878Z,96.45
2018-03-25T03:35:37.376Z,96.83
2018-03-25T03:37:30.236Z,96.83
2018-03-25T03:38:30.138Z,96.64
2018-03-25T03:40:23.601Z,95.97
2018-03-25T03:41:23.516Z,96.07
2018-03-25T03:43:17.476Z,95.97
2018-03-25T03:44:16.883Z,95.88
2018-03-25T03:46:11.369Z,96.26
2018-03-25T03:47:10.218Z,95.88
2018-03-25T03:49:03.590Z,95.88
2018-03-25T03:50:03.524Z,95.88
2018-03-25T03:52:03.940Z,96.07
2018-03-25T03:53:03.899Z,95.59
2018-03-25T03:55:02.663Z,95.31
2018-03-25T03:56:01.805Z,95.59
2018-03-25T03:57:55.142Z,95.59
2018-03-25T03:58:55.139Z,95.59
2018-03-25T04:00:48.840Z,95.59
2018-03-25T04:01:48.483Z,95.31
2018-03-25T04:03:42.412Z,95.97
2018-03-25T04:04:41.812Z,95.97
2018-03-25T04:06:35.516Z,95.97
2018-03-25T04:07:35.164Z,95.97
2018-03-25T04:09:28.639Z,95.97
2018-03-25T04:10:28.536Z,96.45
2018-03-25T04:12:22.211Z,96.07
2018-03-25T04:13:21.878Z,96.07
2018-03-25T04:15:15.275Z,95.78
2018-03-25T04:16:15.252Z,95.40
2018-03-25T04:18:08.928Z,95.88
2018-03-25T04:19:08.580Z,95.50
2018-03-25T04:21:01.650Z,95.40
2018-03-25T04:22:01.419Z,95.59
2018-03-25T04:23:54.318Z,95.74
2018-03-25T04:24:54.260Z,95.59
2018-03-25T04:26:47.630Z,95.97
2018-03-25T04:27:48.182Z,96.21
2018-03-25T04:29:42.629Z,95.97
2018-03-25T04:30:41.637Z,96.07
2018-03-25T04:32:35.386Z,96.02
2018-03-25T04:33:35.000Z,96.16
2018-03-25T04:35:28.928Z,96.31
2018-03-25T04:36:28.128Z,95.83
2018-03-25T04:38:21.594Z,95.83
2018-03-25T04:39:21.473Z,96.12
2018-03-25T04:41:15.484Z,96.31
2018-03-25T04:42:15.388Z,96.31
2018-03-25T04:44:08.802Z,96.31
2018-03-25T04:45:08.735Z,96.40
2018-03-25T04:47:02.823Z,96.40
2018-03-25T04:48:02.120Z,96.59
2018-03-25T04:49:56.587Z,97.16
2018-03-25T04:52:09.483Z,96.59
2018-03-25T04:53:08.869Z,96.59
2018-03-25T04:55:02.568Z,97.16
2018-03-25T04:56:02.541Z,98.01
2018-03-25T04:57:55.995Z,97.82
2018-03-25T04:58:55.961Z,98.20
2018-03-25T05:00:49.928Z,97.63
2018-03-25T05:01:49.481Z,97.82
2018-03-25T05:03:43.270Z,97.72
2018-03-25T05:04:42.950Z,97.82
2018-03-25T05:06:36.614Z,97.72
2018-03-25T05:07:36.192Z,97.63
2018-03-25T05:09:30.471Z,97.63
2018-03-25T05:10:30.381Z,97.91
2018-03-25T05:12:23.771Z,97.82
2018-03-25T05:13:23.709Z,98.01
2018-03-25T05:15:16.915Z,97.72
2018-03-25T05:16:16.615Z,97.63
2018-03-25T05:18:10.349Z,97.72
2018-03-25T05:19:09.983Z,97.63
2018-03-25T05:21:03.592Z,97.63
2018-03-25T05:22:03.138Z,97.72
2018-03-25T05:23:56.863Z,97.72
2018-03-25T05:24:56.884Z,97.82
2018-03-25T05:26:50.697Z,97.44
2018-03-25T05:27:50.456Z,97.72
2018-03-25T05:29:43.256Z,98.01
2018-03-25T05:30:43.155Z,97.82
2018-03-25T05:32:36.721Z,97.82
2018-03-25T05:33:36.322Z,97.91
2018-03-25T05:35:30.198Z,97.63
2018-03-25T05:36:29.751Z,97.06
2018-03-25T05:38:23.493Z,97.82
2018-03-25T05:39:23.047Z,97.63
2018-03-25T05:41:17.036Z,97.53
2018-03-25T05:42:16.444Z,97.82
2018-03-25T05:44:09.773Z,97.25
2018-03-25T05:45:09.734Z,97.63
2018-03-25T05:47:02.773Z,97.53
2018-03-25T05:48:02.596Z,97.44
2018-03-25T05:49:55.659Z,97.63
2018-03-25T05:50:55.461Z,97.63
2018-03-25T05:52:48.790Z,97.82
2018-03-25T05:53:48.764Z,97.44
2018-03-25T05:55:42.173Z,96.97
2018-03-25T05:56:42.120Z,97.58
2018-03-25T05:58:35.475Z,97.20
2018-03-25T05:59:35.428Z,97.02
2018-03-25T06:01:29.880Z,96.35
2018-03-25T06:02:29.774Z,96.54
2018-03-25T06:04:23.322Z,96.07
2018-03-25T06:05:23.147Z,95.97
2018-03-25T06:07:16.554Z,95.31
2018-03-25T06:08:16.488Z,95.50
2018-03-25T06:10:37.339Z,95.31
2018-03-25T06:11:37.307Z,95.59
2018-03-25T06:13:31.016Z,94.93
2018-03-25T06:15:44.138Z,94.93
2018-03-25T06:16:44.037Z,94.27
2018-03-25T06:18:37.765Z,94.46
2018-03-25T06:19:37.353Z,94.27
2018-03-25T06:21:30.795Z,94.32
2018-03-25T06:22:30.734Z,93.75
2018-03-25T06:24:25.612Z,93.56
2018-03-25T06:25:24.100Z,93.37
2018-03-25T06:27:17.383Z,93.27
2018-03-25T06:28:17.248Z,92.80
2018-03-25T06:30:10.963Z,92.33
2018-03-25T06:31:10.590Z,92.05
2018-03-25T06:33:04.902Z,91.00
2018-03-25T06:34:03.943Z,91.29
2018-03-25T06:35:57.754Z,90.77
2018-03-25T06:36:57.325Z,91.05
2018-03-25T06:38:51.152Z,90.01
2018-03-25T06:39:50.712Z,90.01
2018-03-25T06:41:44.126Z,89.53
2018-03-25T06:42:43.965Z,88.87
2018-03-25T06:44:37.765Z,88.49
2018-03-25T06:45:37.448Z,88.82
2018-03-25T06:47:31.093Z,88.25
2018-03-25T06:48:31.011Z,87.49
2018-03-25T06:50:24.530Z,87.21
2018-03-25T06:51:24.084Z,86.55
2018-03-25T06:53:17.735Z,85.69
2018-03-25T06:54:17.379Z,85.31
2018-03-25T06:56:10.611Z,84.98
2018-03-25T06:57:10.254Z,84.12
2018-03-25T06:59:04.019Z,83.94
2018-03-25T07:00:06.189Z,83.65
2018-03-25T07:01:58.161Z,83.08
2018-03-25T07:02:57.980Z,83.08
2018-03-25T07:04:50.915Z,83.12
2018-03-25T07:05:50.833Z,82.36
2018-03-25T07:07:43.844Z,82.08
2018-03-25T07:08:43.717Z,82.17
2018-03-25T07:10:38.638Z,80.75
2018-03-25T07:11:36.544Z,80.18
2018-03-25T07:13:30.002Z,82.27
2018-03-25T07:14:29.922Z,82.93
2018-03-25T07:16:23.284Z,83.16
2018-03-25T07:17:23.257Z,82.78
2018-03-25T07:19:16.125Z,80.32
2018-03-25T07:20:16.107Z,80.32
2018-03-25T07:22:09.068Z,80.13
2018-03-25T07:23:08.968Z,79.46
2018-03-25T07:25:02.112Z,78.13
2018-03-25T07:26:01.833Z,78.64
2018-03-25T07:27:55.315Z,77.79
2018-03-25T07:28:54.695Z,77.22
2018-03-25T07:30:48.162Z,77.22
2018-03-25T07:31:48.049Z,76.56
2018-03-25T07:33:41.043Z,76.46
2018-03-25T07:34:40.915Z,76.46
2018-03-25T07:36:33.810Z,76.08
2018-03-25T07:37:33.776Z,75.51
2018-03-25T07:39:26.777Z,75.60
2018-03-25T07:40:26.639Z,75.79
2018-03-25T07:42:20.027Z,75.55
2018-03-25T07:43:19.996Z,75.36
2018-03-25T07:45:13.401Z,75.17
2018-03-25T07:46:13.359Z,74.98
2018-03-25T07:48:06.735Z,74.03
2018-03-25T07:49:06.708Z,73.74
2018-03-25T07:50:59.612Z,73.74
2018-03-25T07:51:59.650Z,73.36
2018-03-25T07:53:52.597Z,73.08
2018-03-25T07:54:52.557Z,72.99
2018-03-25T07:56:46.452Z,72.74
2018-03-25T07:57:45.841Z,72.64
2018-03-25T07:59:38.734Z,72.45
2018-03-25T08:00:38.717Z,71.69
2018-03-25T08:02:32.188Z,71.02
2018-03-25T08:03:32.069Z,71.02
2018-03-25T08:05:25.464Z,70.93
2018-03-25T08:06:25.428Z,71.31
2018-03-25T08:08:18.885Z,71.02
2018-03-25T08:09:18.775Z,70.93
2018-03-25T08:11:11.747Z,70.74
2018-03-25T08:12:11.680Z,70.64
2018-03-25T08:14:04.609Z,70.87
2018-03-25T08:15:04.578Z,70.77
2018-03-25T08:16:57.966Z,71.06
2018-03-25T08:17:57.938Z,70.77
2018-03-25T08:19:50.876Z,70.39
2018-03-25T08:20:50.807Z,69.63
2018-03-25T08:22:44.191Z,69.35
2018-03-25T08:23:44.157Z,68.87
2018-03-25T08:25:37.072Z,68.87
2018-03-25T08:26:37.013Z,69.54
2018-03-25T08:28:29.944Z,69.82
2018-03-25T08:29:29.884Z,69.57
2018-03-25T08:31:23.271Z,69.19
2018-03-25T08:32:23.237Z,68.71
2018-03-25T08:34:16.145Z,68.71
2018-03-25T08:35:16.110Z,68.71
2018-03-25T08:37:09.523Z,69.38
2018-03-25T08:38:09.484Z,69.00
2018-03-25T08:40:02.354Z,69.38
2018-03-25T08:41:02.318Z,68.87
2018-03-25T08:42:55.276Z,69.92
2018-03-25T08:43:55.183Z,70.72
2018-03-25T08:45:48.711Z,70.72
2018-03-25T08:46:48.689Z,70.24
2018-03-25T08:48:41.645Z,69.48
2018-03-25T08:49:41.543Z,69.57
2018-03-25T08:51:34.983Z,69.57
2018-03-25T08:52:34.903Z,69.92
2018-03-25T08:54:27.795Z,70.30
2018-03-25T08:55:27.762Z,69.67
2018-03-25T08:57:21.189Z,69.67
2018-03-25T08:58:21.158Z,69.67
2018-03-25T09:00:14.827Z,69.57
2018-03-25T09:01:14.027Z,69.57
2018-03-25T09:03:07.137Z,69.10
2018-03-25T09:04:06.865Z,69.38
2018-03-25T09:06:00.931Z,69.10
2018-03-25T09:06:59.765Z,69.57
2018-03-25T09:08:52.672Z,69.48
2018-03-25T09:09:52.615Z,69.29
2018-03-25T09:11:45.547Z,68.81
2018-03-25T09:12:45.489Z,69.48
2018-03-25T09:14:38.395Z,69.10
2018-03-25T09:15:38.355Z,69.19
2018-03-25T09:17:31.324Z,68.90
2018-03-25T09:18:31.296Z,68.71
2018-03-25T09:20:24.598Z,68.43
2018-03-25T09:21:24.561Z,68.24
2018-03-25T09:23:17.465Z,68.05
2018-03-25T09:24:17.432Z,68.05
2018-03-25T09:26:10.830Z,67.67
2018-03-25T09:27:10.785Z,67.99
2018-03-25T09:29:04.200Z,67.51
2018-03-25T09:30:04.129Z,67.51
2018-03-25T09:31:57.186Z,67.89
2018-03-25T09:32:57.049Z,67.41
2018-03-25T09:34:50.465Z,66.56
2018-03-25T09:35:50.994Z,66.37
2018-03-25T09:37:43.772Z,66.75
2018-03-25T09:38:43.736Z,65.89
2018-03-25T09:40:37.176Z,65.13
2018-03-25T09:41:37.103Z,65.13
2018-03-25T09:43:30.087Z,64.94
2018-03-25T09:44:29.991Z,65.23
2018-03-25T09:46:23.305Z,65.45
2018-03-25T09:47:22.869Z,65.07
2018-03-25T09:49:15.764Z,64.78
2018-03-25T09:50:15.732Z,64.78
2018-03-25T09:52:08.832Z,64.78
2018-03-25T09:53:08.607Z,64.12
2018-03-25T09:55:01.653Z,63.35
2018-03-25T09:56:01.477Z,63.35
2018-03-25T09:57:54.445Z,63.48
2018-03-25T09:58:54.332Z,62.62
2018-03-25T10:00:47.219Z,62.24
2018-03-25T10:01:47.203Z,61.96
2018-03-25T10:03:40.611Z,61.48
2018-03-25T10:04:40.601Z,61.19
2018-03-25T10:06:33.949Z,60.72
2018-03-25T10:07:33.960Z,60.05
2018-03-25T10:09:27.397Z,59.48
2018-03-25T10:10:27.276Z,59.38
2018-03-25T10:12:20.263Z,59.19
2018-03-25T10:13:20.151Z,58.72
2018-03-25T10:15:13.041Z,57.95
2018-03-25T10:16:13.264Z,57.57
2018-03-25T10:18:06.063Z,56.90
2018-03-25T10:19:05.883Z,57.38
2018-03-25T10:20:59.284Z,57.28
2018-03-25T10:21:59.248Z,57.38
2018-03-25T10:23:52.198Z,56.14
2018-03-25T10:24:52.120Z,55.38
2018-03-25T10:26:45.564Z,55.38
2018-03-25T10:27:45.469Z,55.98
2018-03-25T10:29:38.874Z,55.31
2018-03-25T10:30:38.830Z,55.50
2018-03-25T10:32:31.727Z,54.83
2018-03-25T10:33:31.695Z,54.83
2018-03-25T10:35:25.128Z,54.36
2018-03-25T10:36:25.071Z,53.69
2018-03-25T10:38:17.945Z,53.78
2018-03-25T10:39:17.920Z,54.26
2018-03-25T10:41:10.937Z,54.07
2018-03-25T10:42:10.806Z,53.21
2018-03-25T10:44:03.712Z,53.02
2018-03-25T10:45:03.674Z,53.12
2018-03-25T10:46:56.565Z,53.62
2018-03-25T10:47:56.538Z,53.59
2018-03-25T10:49:49.518Z,53.21
2018-03-25T10:50:49.416Z,52.55
2018-03-25T10:52:42.298Z,51.90
2018-03-25T10:53:42.291Z,51.43
2018-03-25T10:55:35.168Z,51.23
2018-03-25T10:56:35.141Z,51.33
2018-03-25T10:58:28.048Z,52.19
2018-03-25T10:59:28.015Z,52.38
2018-03-25T11:01:20.920Z,51.71
2018-03-25T11:02:20.892Z,51.62
2018-03-25T11:04:14.353Z,51.52
2018-03-25T11:05:13.760Z,51.62
2018-03-25T11:07:06.643Z,52.38
2018-03-25T11:08:06.617Z,51.71
2018-03-25T11:09:59.535Z,52.00
2018-03-25T11:10:59.495Z,51.17
2018-03-25T11:12:52.389Z,50.78
2018-03-25T11:13:52.414Z,51.26
2018-03-25T11:15:45.760Z,52.03
2018-03-25T11:16:46.302Z,51.45
2018-03-25T11:18:39.238Z,51.74
2018-03-25T11:19:39.108Z,51.26
2018-03-25T11:21:32.158Z,50.88
2018-03-25T11:22:31.968Z,51.45
2018-03-25T11:24:25.375Z,51.64
2018-03-25T11:25:25.315Z,50.98
2018-03-25T11:27:18.727Z,51.26
2018-03-25T11:28:18.697Z,51.17
2018-03-25T11:30:11.601Z,52.12
2018-03-25T11:31:11.567Z,51.35
2018-03-25T11:33:04.556Z,51.83
2018-03-25T11:34:04.429Z,51.07
2018-03-25T11:35:57.325Z,50.88
2018-03-25T11:36:57.293Z,50.49
2018-03-25T11:38:50.695Z,50.40
2018-03-25T11:39:50.652Z,50.78
2018-03-25T11:41:44.039Z,50.49
2018-03-25T11:42:44.027Z,50.12
2018-03-25T11:44:36.974Z,50.31
2018-03-25T11:45:36.887Z,50.69
2018-03-25T11:47:29.810Z,50.78
2018-03-25T11:48:29.752Z,50.40
2018-03-25T11:50:23.153Z,50.98
2018-03-25T11:51:23.110Z,50.04
2018-03-25T11:53:16.073Z,50.33
2018-03-25T11:54:15.992Z,50.14
2018-03-25T11:56:08.900Z,49.95
2018-03-25T11:57:08.886Z,50.14
2018-03-25T11:59:02.258Z,50.31
2018-03-25T12:00:02.243Z,50.14
2018-03-25T12:01:55.641Z,49.95
2018-03-25T12:02:55.590Z,49.93
2018-03-25T12:04:48.476Z,50.02
2018-03-25T12:05:48.460Z,49.64
2018-03-25T12:07:41.858Z,49.35
2018-03-25T12:08:41.843Z,49.38
2018-03-25T12:10:35.215Z,50.14
2018-03-25T12:11:35.195Z,49.18
2018-03-25T12:13:28.200Z,50.04
2018-03-25T12:14:28.058Z,49.38
2018-03-25T12:16:22.016Z,50.14
2018-03-25T12:17:21.438Z,50.04
2018-03-25T12:19:14.323Z,49.66
2018-03-25T12:20:14.301Z,49.38
2018-03-25T12:22:07.313Z,48.71
2018-03-25T12:23:07.212Z,48.80
2018-03-25T12:25:00.567Z,49.95
2018-03-25T12:26:00.658Z,50.52
2018-03-25T12:27:53.426Z,49.76
2018-03-25T12:28:53.430Z,50.07
2018-03-25T12:30:46.787Z,49.40
2018-03-25T12:31:46.758Z,48.52
2018-03-25T12:33:40.151Z,49.47
2018-03-25T12:34:40.118Z,49.28
2018-03-25T12:36:33.162Z,48.90
2018-03-25T12:37:33.012Z,49.30
2018-03-25T12:39:26.481Z,48.71
2018-03-25T12:40:26.357Z,49.47
2018-03-25T12:42:19.843Z,49.76
2018-03-25T12:43:19.705Z,49.95
2018-03-25T12:45:13.111Z,49.09
2018-03-25T12:46:13.090Z,48.80
2018-03-25T12:48:06.062Z,49.49
2018-03-25T12:49:05.956Z,49.38
2018-03-25T12:50:59.352Z,48.73
2018-03-25T12:51:59.317Z,48.42
2018-03-25T12:53:52.289Z,48.23
2018-03-25T12:54:52.198Z,49.02
2018-03-25T12:56:45.082Z,47.75
2018-03-25T12:57:45.063Z,48.07
2018-03-25T12:59:38.094Z,48.64
2018-03-25T13:00:37.938Z,47.49
2018-03-25T13:02:31.328Z,47.87
2018-03-25T13:03:31.298Z,48.35
2018-03-25T13:05:24.832Z,47.97
2018-03-25T13:06:24.685Z,47.20
2018-03-25T13:08:17.693Z,45.96
2018-03-25T13:09:17.531Z,46.72
2018-03-25T13:11:10.556Z,47.39
2018-03-25T13:12:10.405Z,47.58
2018-03-25T13:14:03.421Z,47.39
2018-03-25T13:15:03.267Z,47.97
2018-03-25T13:16:56.160Z,47.87
2018-03-25T13:17:56.156Z,47.68
2018-03-25T13:19:49.036Z,47.30
2018-03-25T13:20:49.031Z,47.49
2018-03-25T13:22:42.396Z,47.39
2018-03-25T13:23:42.374Z,47.39
2018-03-25T13:25:35.273Z,47.30
2018-03-25T13:26:35.249Z,47.49
2018-03-25T13:28:28.289Z,46.82
2018-03-25T13:29:28.118Z,46.92
2018-03-25T13:31:21.609Z,46.25
2018-03-25T13:32:21.477Z,46.06
2018-03-25T13:34:14.509Z,46.17
2018-03-25T13:35:14.447Z,45.96
2018-03-25T13:37:07.449Z,46.06
2018-03-25T13:38:07.323Z,45.77
2018-03-25T13:40:00.816Z,45.87
2018-03-25T13:41:00.685Z,45.89
2018-03-25T13:42:53.672Z,45.60
2018-03-25T13:43:53.554Z,45.79
2018-03-25T13:45:46.936Z,45.51
2018-03-25T13:46:46.915Z,45.60
2018-03-25T13:48:40.399Z,45.98
2018-03-25T13:49:40.298Z,45.03
2018-03-25T13:51:33.204Z,44.65
2018-03-25T13:52:33.153Z,44.45
2018-03-25T13:54:26.127Z,44.17
2018-03-25T13:55:26.056Z,44.26
2018-03-25T13:57:19.065Z,44.53
2018-03-25T13:58:18.915Z,44.72
2018-03-25T14:00:12.020Z,45.03
2018-03-25T14:01:11.794Z,44.93
2018-03-25T14:03:04.725Z,44.55
2018-03-25T14:04:04.698Z,44.45
2018-03-25T14:05:58.066Z,44.74
2018-03-25T14:06:58.023Z,44.65
2018-03-25T14:08:51.032Z,45.12
2018-03-25T14:09:50.923Z,45.03
2018-03-25T14:11:43.800Z,44.26
2018-03-25T14:12:43.796Z,45.03
2018-03-25T14:14:36.754Z,45.03
2018-03-25T14:15:36.652Z,45.22
2018-03-25T14:17:29.687Z,45.60
2018-03-25T14:18:29.521Z,45.51
2018-03-25T14:20:23.050Z,45.89
2018-03-25T14:21:22.890Z,45.60
2018-03-25T14:23:15.926Z,45.51
2018-03-25T14:24:15.747Z,44.55
2018-03-25T14:26:09.291Z,44.93
2018-03-25T14:27:09.125Z,45.22
2018-03-25T14:29:02.413Z,45.12
2018-03-25T14:30:02.450Z,44.74
2018-03-25T14:31:55.432Z,45.22
2018-03-25T14:32:55.277Z,45.60
2018-03-25T14:34:48.148Z,45.60
2018-03-25T14:35:48.136Z,45.89
2018-03-25T14:37:41.598Z,45.89
2018-03-25T14:38:41.491Z,45.87
2018-03-25T14:40:34.459Z,45.87
2018-03-25T14:41:34.426Z,45.87
2018-03-25T14:43:27.365Z,45.96
2018-03-25T14:44:27.339Z,45.67
2018-03-25T14:46:20.542Z,45.87
2018-03-25T14:47:20.205Z,45.87
2018-03-25T14:49:15.140Z,45.77
2018-03-25T14:50:14.994Z,45.98
2018-03-25T14:52:09.747Z,45.48
2018-03-25T14:53:07.867Z,45.58
2018-03-25T14:55:01.251Z,45.58
2018-03-25T14:56:01.249Z,45.29
2018-03-25T14:57:54.435Z,46.72
2018-03-25T14:58:54.103Z,46.82
2018-03-25T15:00:47.110Z,46.06
2018-03-25T15:01:47.209Z,45.58
2018-03-25T15:03:40.939Z,45.39
2018-03-25T15:04:40.402Z,44.72
2018-03-25T15:06:33.363Z,44.81
2018-03-25T15:07:33.221Z,44.53
2018-03-25T15:09:26.192Z,44.72
2018-03-25T15:10:26.103Z,44.72
2018-03-25T15:12:20.150Z,45.12
2018-03-25T15:13:19.462Z,45.41
2018-03-25T15:15:12.659Z,45.79
2018-03-25T15:16:12.496Z,45.51
2018-03-25T15:18:05.492Z,45.12
2018-03-25T15:19:05.479Z,45.12
2018-03-25T15:20:58.944Z,45.51
2018-03-25T15:21:58.346Z,45.60
2018-03-25T15:23:51.795Z,45.41
2018-03-25T15:24:51.201Z,45.51
2018-03-25T15:26:44.591Z,45.51
2018-03-25T15:27:44.567Z,45.79
2018-03-25T15:29:37.479Z,45.70
2018-03-25T15:30:37.440Z,45.41
2018-03-25T15:32:30.849Z,44.74
2018-03-25T15:33:30.811Z,44.26
2018-03-25T15:35:23.827Z,44.55
2018-03-25T15:36:23.706Z,44.26
2018-03-25T15:38:16.746Z,45.51
2018-03-25T15:39:16.602Z,45.51
2018-03-25T15:41:09.977Z,45.31
2018-03-25T15:42:09.996Z,45.22
2018-03-25T15:44:03.544Z,45.22
2018-03-25T15:45:03.589Z,44.55
2018-03-25T15:46:56.855Z,44.36
2018-03-25T15:47:56.774Z,44.45
2018-03-25T15:49:50.366Z,44.74
2018-03-25T15:50:50.117Z,44.74
2018-03-25T15:52:43.570Z,45.03
2018-03-25T15:53:43.080Z,44.55
2018-03-25T15:55:35.995Z,45.03
2018-03-25T15:56:35.982Z,45.22
2018-03-25T15:58:29.557Z,45.41
2018-03-25T15:59:29.372Z,45.51
2018-03-25T16:01:22.257Z,45.89
2018-03-25T16:02:22.239Z,45.79
2018-03-25T16:04:15.655Z,45.12
2018-03-25T16:05:15.589Z,45.12
2018-03-25T16:07:08.499Z,45.41
2018-03-25T16:08:08.509Z,45.51
2018-03-25T16:10:01.385Z,45.39
2018-03-25T16:11:01.351Z,45.48
2018-03-25T16:12:54.744Z,45.20
2018-03-25T16:13:54.725Z,44.62
2018-03-25T16:15:48.117Z,44.34
2018-03-25T16:16:48.106Z,44.43
2018-03-25T16:18:41.056Z,44.43
2018-03-25T16:19:40.990Z,44.91
2018-03-25T16:21:34.964Z,44.62
2018-03-25T16:22:34.400Z,45.10
2018-03-25T16:24:27.289Z,45.20
2018-03-25T16:25:27.255Z,45.58
2018-03-25T16:27:20.738Z,45.77
2018-03-25T16:28:20.611Z,45.87
2018-03-25T16:30:14.071Z,45.67
2018-03-25T16:31:13.980Z,45.48
2018-03-25T16:33:07.600Z,46.06
2018-03-25T16:34:07.375Z,45.96
2018-03-25T16:36:00.288Z,45.96
2018-03-25T16:37:00.253Z,45.96
2018-03-25T16:38:54.618Z,46.34
2018-03-25T16:39:53.768Z,46.44
2018-03-25T16:41:47.748Z,46.53
2018-03-25T16:42:47.148Z,47.30
2018-03-25T16:44:41.874Z,47.78
2018-03-25T16:45:40.430Z,47.87
2018-03-25T16:47:33.534Z,47.87
2018-03-25T16:48:33.246Z,47.87
2018-03-25T16:50:26.686Z,47.97
2018-03-25T16:51:26.626Z,47.97
2018-03-25T16:53:20.185Z,48.44
2018-03-25T16:54:20.123Z,48.35
2018-03-25T16:56:13.705Z,48.93
2018-03-25T16:57:12.922Z,48.35
2018-03-25T16:59:08.514Z,48.93
2018-03-25T17:00:07.546Z,49.02
2018-03-25T17:02:00.698Z,49.40
2018-03-25T17:03:00.369Z,48.83
2018-03-25T17:04:53.778Z,49.40
2018-03-25T17:05:53.742Z,49.59
2018-03-25T17:07:47.133Z,49.40
2018-03-25T17:08:46.612Z,49.40
2018-03-25T17:10:39.568Z,49.30
2018-03-25T17:11:39.478Z,49.21
2018-03-25T17:15:14.660Z,49.78
2018-03-25T17:16:14.609Z,49.76
2018-03-25T17:18:07.543Z,50.43
2018-03-25T17:19:07.767Z,50.43
2018-03-25T17:21:00.630Z,50.04
2018-03-25T17:22:00.442Z,50.33
2018-03-25T17:23:53.309Z,50.81
2018-03-25T17:24:53.289Z,50.71
2018-03-25T17:26:46.199Z,51.67
2018-03-25T17:27:46.161Z,51.67
2018-03-25T17:29:39.153Z,52.81
2018-03-25T17:30:39.591Z,53.20
2018-03-25T17:32:32.017Z,53.10
2018-03-25T17:33:32.010Z,53.77
2018-03-25T17:35:24.868Z,53.49
2018-03-25T17:36:24.865Z,53.77
2018-03-25T17:38:17.865Z,54.44
2018-03-25T17:39:20.125Z,54.15
2018-03-25T17:41:10.603Z,54.44
2018-03-25T17:42:10.578Z,54.91
2018-03-25T17:44:04.767Z,54.91
2018-03-25T17:45:04.539Z,55.11
2018-03-25T17:46:57.438Z,55.84
2018-03-25T17:49:10.833Z,56.32
2018-03-25T17:50:10.796Z,56.32
2018-03-25T17:52:06.831Z,56.13
2018-03-25T17:53:04.177Z,56.41
2018-03-25T17:54:57.234Z,56.13
2018-03-25T17:55:57.006Z,56.32
2018-03-25T17:57:52.023Z,56.41
2018-03-25T17:58:51.369Z,56.04
2018-03-25T18:00:45.520Z,56.23
2018-03-25T18:01:45.382Z,56.51
2018-03-25T18:03:38.952Z,56.23
2018-03-25T18:04:38.474Z,56.32
2018-03-25T18:06:37.426Z,56.32
2018-03-25T18:09:37.875Z,56.13
2018-03-25T18:10:37.146Z,55.94
2018-03-25T18:12:30.979Z,55.94
2018-03-25T18:13:30.877Z,55.84
2018-03-25T18:15:23.884Z,55.65
2018-03-25T18:16:23.396Z,56.13
2018-03-25T18:18:17.123Z,56.51
2018-03-25T18:19:16.860Z,56.60
2018-03-25T18:21:11.002Z,56.41
2018-03-25T18:22:11.267Z,56.13
2018-03-25T18:24:05.976Z,56.51
2018-03-25T18:25:03.740Z,56.32
2018-03-25T18:26:58.219Z,56.96
2018-03-25T18:27:57.056Z,57.18
2018-03-25T18:29:51.431Z,56.29
2018-03-25T18:30:51.437Z,56.96
2018-03-25T18:32:44.869Z,56.77
2018-03-25T18:33:44.775Z,57.06
2018-03-25T18:35:38.447Z,56.87
2018-03-25T18:36:38.167Z,56.58
2018-03-25T18:38:31.711Z,56.77
2018-03-25T18:39:31.603Z,56.96
2018-03-25T18:41:24.431Z,56.96